sensor_id;sensor_type;location;lat;lon;timestamp;temperature;humidity
13310;DHT22;6723;48.256;16.402;2022-08-21T00:00:48;19.40;99.90
13310;DHT22;6723;48.256;16.402;2022-08-21T00:03:15;19.40;99.90
13310;DHT22;6723;48.256;16.402;2022-08-21T00:05:44;19.40;99.90
13310;DHT22;6723;48.256;16.402;2022-08-21T00:08:11;19.30;99.90
13310;DHT22;6723;48.256;16.402;2022-08-21T00:10:39;19.30;99.90
13310;DHT22;6723;48.256;16.402;2022-08-21T00:13:06;19.30;99.90
13310;DHT22;6723;48.256;16.402;2022-08-21T00:15:34;19.30;99.90
13310;DHT22;6723;48.256;16.402;2022-08-21T00:18:01;19.20;99.90
13310;DHT22;6723;48.256;16.402;2022-08-21T00:20:29;19.20;99.90
13310;DHT22;6723;48.256;16.402;2022-08-21T00:22:55;19.30;99.90
13310;DHT22;6723;48.256;16.402;2022-08-21T00:25:21;19.20;99.90
13310;DHT22;6723;48.256;16.402;2022-08-21T00:27:47;19.30;99.90
13310;DHT22;6723;48.256;16.402;2022-08-21T00:30:15;19.30;99.90
13310;DHT22;6723;48.256;16.402;2022-08-21T00:32:44;19.30;99.90
13310;DHT22;6723;48.256;16.402;2022-08-21T00:35:15;19.20;99.90
13310;DHT22;6723;48.256;16.402;2022-08-21T00:37:42;19.20;99.90
13310;DHT22;6723;48.256;16.402;2022-08-21T00:40:13;19.20;99.90
13310;DHT22;6723;48.256;16.402;2022-08-21T00:42:40;19.20;99.90
13310;DHT22;6723;48.256;16.402;2022-08-21T00:45:07;19.20;99.90
13310;DHT22;6723;48.256;16.402;2022-08-21T00:47:34;19.20;99.90
13310;DHT22;6723;48.256;16.402;2022-08-21T00:50:00;19.20;99.90
13310;DHT22;6723;48.256;16.402;2022-08-21T00:52:29;19.20;99.90
13310;DHT22;6723;48.256;16.402;2022-08-21T00:54:57;19.20;99.90
13310;DHT22;6723;48.256;16.402;2022-08-21T00:57:36;19.20;99.90
13310;DHT22;6723;48.256;16.402;2022-08-21T01:00:07;19.30;99.90
13310;DHT22;6723;48.256;16.402;2022-08-21T01:02:33;19.30;99.90
13310;DHT22;6723;48.256;16.402;2022-08-21T01:05:00;19.30;99.90
13310;DHT22;6723;48.256;16.402;2022-08-21T01:07:26;19.30;99.90
13310;DHT22;6723;48.256;16.402;2022-08-21T01:09:51;19.40;99.90
13310;DHT22;6723;48.256;16.402;2022-08-21T01:12:18;19.30;99.90
13310;DHT22;6723;48.256;16.402;2022-08-21T01:14:44;19.40;99.90
13310;DHT22;6723;48.256;16.402;2022-08-21T01:17:13;19.30;99.90
13310;DHT22;6723;48.256;16.402;2022-08-21T01:19:39;19.40;99.90
13310;DHT22;6723;48.256;16.402;2022-08-21T01:22:05;19.40;99.90
13310;DHT22;6723;48.256;16.402;2022-08-21T01:24:32;19.40;99.90
13310;DHT22;6723;48.256;16.402;2022-08-21T01:26:59;19.40;99.90
13310;DHT22;6723;48.256;16.402;2022-08-21T01:29:55;19.40;99.90
13310;DHT22;6723;48.256;16.402;2022-08-21T01:32:22;19.40;99.90
13310;DHT22;6723;48.256;16.402;2022-08-21T01:34:50;19.50;99.90
13310;DHT22;6723;48.256;16.402;2022-08-21T01:37:18;19.50;99.90
13310;DHT22;6723;48.256;16.402;2022-08-21T01:39:45;19.50;99.90
13310;DHT22;6723;48.256;16.402;2022-08-21T01:42:12;19.50;99.90
13310;DHT22;6723;48.256;16.402;2022-08-21T01:44:39;19.50;99.90
13310;DHT22;6723;48.256;16.402;2022-08-21T01:47:08;19.50;99.90
13310;DHT22;6723;48.256;16.402;2022-08-21T01:49:36;19.50;99.90
13310;DHT22;6723;48.256;16.402;2022-08-21T01:52:03;19.50;99.90
13310;DHT22;6723;48.256;16.402;2022-08-21T01:54:30;19.50;99.90
13310;DHT22;6723;48.256;16.402;2022-08-21T01:56:56;19.50;99.90
13310;DHT22;6723;48.256;16.402;2022-08-21T01:59:24;19.40;99.90
13310;DHT22;6723;48.256;16.402;2022-08-21T02:01:50;19.40;99.90
13310;DHT22;6723;48.256;16.402;2022-08-21T02:04:16;19.40;99.90
13310;DHT22;6723;48.256;16.402;2022-08-21T02:06:42;19.30;99.90
13310;DHT22;6723;48.256;16.402;2022-08-21T02:09:10;19.30;99.90
13310;DHT22;6723;48.256;16.402;2022-08-21T02:11:36;19.30;99.90
13310;DHT22;6723;48.256;16.402;2022-08-21T02:14:11;19.30;99.90
13310;DHT22;6723;48.256;16.402;2022-08-21T02:16:38;19.30;99.90
13310;DHT22;6723;48.256;16.402;2022-08-21T02:19:04;19.30;99.90
13310;DHT22;6723;48.256;16.402;2022-08-21T02:21:30;19.30;99.90
13310;DHT22;6723;48.256;16.402;2022-08-21T02:23:56;19.30;99.90
13310;DHT22;6723;48.256;16.402;2022-08-21T02:26:22;19.30;99.90
13310;DHT22;6723;48.256;16.402;2022-08-21T02:28:48;19.40;99.90
13310;DHT22;6723;48.256;16.402;2022-08-21T02:31:14;19.30;99.90
13310;DHT22;6723;48.256;16.402;2022-08-21T02:33:40;19.30;99.90
13310;DHT22;6723;48.256;16.402;2022-08-21T02:36:07;19.20;99.90
13310;DHT22;6723;48.256;16.402;2022-08-21T02:38:35;19.20;99.90
13310;DHT22;6723;48.256;16.402;2022-08-21T02:41:05;19.20;99.90
13310;DHT22;6723;48.256;16.402;2022-08-21T02:43:31;19.30;99.90
13310;DHT22;6723;48.256;16.402;2022-08-21T02:45:58;19.30;99.90
13310;DHT22;6723;48.256;16.402;2022-08-21T02:48:27;19.20;99.90
13310;DHT22;6723;48.256;16.402;2022-08-21T02:50:57;19.20;99.90
13310;DHT22;6723;48.256;16.402;2022-08-21T02:53:24;19.20;99.90
13310;DHT22;6723;48.256;16.402;2022-08-21T02:55:52;19.20;99.90
13310;DHT22;6723;48.256;16.402;2022-08-21T02:58:21;19.20;99.90
13310;DHT22;6723;48.256;16.402;2022-08-21T03:00:47;19.20;99.90
13310;DHT22;6723;48.256;16.402;2022-08-21T03:03:13;19.20;99.90
13310;DHT22;6723;48.256;16.402;2022-08-21T03:05:40;19.20;99.90
13310;DHT22;6723;48.256;16.402;2022-08-21T03:08:08;19.20;99.90
13310;DHT22;6723;48.256;16.402;2022-08-21T03:10:38;19.20;99.90
13310;DHT22;6723;48.256;16.402;2022-08-21T03:13:08;19.20;99.90
13310;DHT22;6723;48.256;16.402;2022-08-21T03:15:34;19.20;99.90
13310;DHT22;6723;48.256;16.402;2022-08-21T03:18:01;19.20;99.90
13310;DHT22;6723;48.256;16.402;2022-08-21T03:20:29;19.10;99.90
13310;DHT22;6723;48.256;16.402;2022-08-21T03:22:58;19.10;99.90
13310;DHT22;6723;48.256;16.402;2022-08-21T03:25:26;19.10;99.90
13310;DHT22;6723;48.256;16.402;2022-08-21T03:27:52;19.10;99.90
13310;DHT22;6723;48.256;16.402;2022-08-21T03:30:20;19.10;99.90
13310;DHT22;6723;48.256;16.402;2022-08-21T03:32:48;19.10;99.90
13310;DHT22;6723;48.256;16.402;2022-08-21T03:35:14;19.20;99.90
13310;DHT22;6723;48.256;16.402;2022-08-21T03:37:40;19.10;99.90
13310;DHT22;6723;48.256;16.402;2022-08-21T03:40:08;19.10;99.90
13310;DHT22;6723;48.256;16.402;2022-08-21T03:43:04;19.10;99.90
13310;DHT22;6723;48.256;16.402;2022-08-21T03:45:30;19.10;99.90
13310;DHT22;6723;48.256;16.402;2022-08-21T03:48:02;19.00;99.90
13310;DHT22;6723;48.256;16.402;2022-08-21T03:50:31;19.10;99.90
13310;DHT22;6723;48.256;16.402;2022-08-21T03:52:57;19.00;99.90
13310;DHT22;6723;48.256;16.402;2022-08-21T03:55:25;19.00;99.90
13310;DHT22;6723;48.256;16.402;2022-08-21T03:57:51;19.00;99.90
13310;DHT22;6723;48.256;16.402;2022-08-21T04:00:18;19.10;99.90
13310;DHT22;6723;48.256;16.402;2022-08-21T04:02:45;19.00;99.90
13310;DHT22;6723;48.256;16.402;2022-08-21T04:05:13;19.10;99.90
13310;DHT22;6723;48.256;16.402;2022-08-21T04:07:40;19.10;99.90
13310;DHT22;6723;48.256;16.402;2022-08-21T04:10:07;19.10;99.90
13310;DHT22;6723;48.256;16.402;2022-08-21T04:12:33;19.10;99.90
13310;DHT22;6723;48.256;16.402;2022-08-21T04:14:59;19.10;99.90
13310;DHT22;6723;48.256;16.402;2022-08-21T04:17:25;19.10;99.90
13310;DHT22;6723;48.256;16.402;2022-08-21T04:19:50;19.10;99.90
13310;DHT22;6723;48.256;16.402;2022-08-21T04:22:16;19.10;99.90
13310;DHT22;6723;48.256;16.402;2022-08-21T04:24:42;19.00;99.90
13310;DHT22;6723;48.256;16.402;2022-08-21T04:27:08;19.00;99.90
13310;DHT22;6723;48.256;16.402;2022-08-21T04:29:34;19.00;99.90
13310;DHT22;6723;48.256;16.402;2022-08-21T04:31:59;19.10;99.90
13310;DHT22;6723;48.256;16.402;2022-08-21T04:34:25;19.10;99.90
13310;DHT22;6723;48.256;16.402;2022-08-21T04:36:51;19.10;99.90
13310;DHT22;6723;48.256;16.402;2022-08-21T04:39:16;19.10;99.90
13310;DHT22;6723;48.256;16.402;2022-08-21T04:41:42;19.10;99.90
13310;DHT22;6723;48.256;16.402;2022-08-21T04:44:08;19.10;99.90
13310;DHT22;6723;48.256;16.402;2022-08-21T04:46:34;19.10;99.90
13310;DHT22;6723;48.256;16.402;2022-08-21T04:49:00;19.20;99.90
13310;DHT22;6723;48.256;16.402;2022-08-21T04:51:30;19.20;99.90
13310;DHT22;6723;48.256;16.402;2022-08-21T04:54:07;19.30;99.90
13310;DHT22;6723;48.256;16.402;2022-08-21T04:56:42;19.30;99.90
13310;DHT22;6723;48.256;16.402;2022-08-21T04:59:21;19.30;99.90
13310;DHT22;6723;48.256;16.402;2022-08-21T05:01:47;19.40;99.90
13310;DHT22;6723;48.256;16.402;2022-08-21T05:04:18;19.40;99.90
13310;DHT22;6723;48.256;16.402;2022-08-21T05:06:47;19.40;99.90
13310;DHT22;6723;48.256;16.402;2022-08-21T05:09:15;19.50;99.90
13310;DHT22;6723;48.256;16.402;2022-08-21T05:11:42;19.60;99.90
13310;DHT22;6723;48.256;16.402;2022-08-21T05:14:10;19.60;99.90
13310;DHT22;6723;48.256;16.402;2022-08-21T05:16:37;19.70;99.90
13310;DHT22;6723;48.256;16.402;2022-08-21T05:19:04;19.80;99.90
13310;DHT22;6723;48.256;16.402;2022-08-21T05:21:31;20.00;99.90
13310;DHT22;6723;48.256;16.402;2022-08-21T05:24:00;20.10;99.90
13310;DHT22;6723;48.256;16.402;2022-08-21T05:26:25;20.20;99.90
13310;DHT22;6723;48.256;16.402;2022-08-21T05:28:51;20.40;99.90
13310;DHT22;6723;48.256;16.402;2022-08-21T05:31:18;20.50;99.90
13310;DHT22;6723;48.256;16.402;2022-08-21T05:33:43;20.60;99.90
13310;DHT22;6723;48.256;16.402;2022-08-21T05:36:09;20.80;99.90
13310;DHT22;6723;48.256;16.402;2022-08-21T05:38:35;20.70;99.90
13310;DHT22;6723;48.256;16.402;2022-08-21T05:41:01;20.80;99.90
13310;DHT22;6723;48.256;16.402;2022-08-21T05:43:26;20.80;99.90
13310;DHT22;6723;48.256;16.402;2022-08-21T05:45:52;20.90;99.90
13310;DHT22;6723;48.256;16.402;2022-08-21T05:48:23;20.80;99.90
13310;DHT22;6723;48.256;16.402;2022-08-21T05:50:50;20.80;99.90
13310;DHT22;6723;48.256;16.402;2022-08-21T05:53:18;20.90;99.90
13310;DHT22;6723;48.256;16.402;2022-08-21T05:55:46;20.90;99.90
13310;DHT22;6723;48.256;16.402;2022-08-21T05:58:14;20.90;99.90
13310;DHT22;6723;48.256;16.402;2022-08-21T06:00:40;20.90;99.90
13310;DHT22;6723;48.256;16.402;2022-08-21T06:03:16;20.80;99.90
13310;DHT22;6723;48.256;16.402;2022-08-21T06:05:43;20.80;99.90
13310;DHT22;6723;48.256;16.402;2022-08-21T06:08:08;20.90;99.90
13310;DHT22;6723;48.256;16.402;2022-08-21T06:10:34;20.90;99.90
13310;DHT22;6723;48.256;16.402;2022-08-21T06:13:00;20.80;99.90
13310;DHT22;6723;48.256;16.402;2022-08-21T06:15:26;20.90;99.90
13310;DHT22;6723;48.256;16.402;2022-08-21T06:17:53;21.00;99.90
13310;DHT22;6723;48.256;16.402;2022-08-21T06:20:19;20.90;99.90
13310;DHT22;6723;48.256;16.402;2022-08-21T06:22:45;21.00;99.90
13310;DHT22;6723;48.256;16.402;2022-08-21T06:25:10;21.20;99.90
13310;DHT22;6723;48.256;16.402;2022-08-21T06:27:36;21.30;99.90
13310;DHT22;6723;48.256;16.402;2022-08-21T06:30:04;21.30;99.90
13310;DHT22;6723;48.256;16.402;2022-08-21T06:32:31;21.40;99.90
13310;DHT22;6723;48.256;16.402;2022-08-21T06:34:57;21.40;99.90
13310;DHT22;6723;48.256;16.402;2022-08-21T06:37:23;21.50;99.90
13310;DHT22;6723;48.256;16.402;2022-08-21T06:39:48;21.60;99.90
13310;DHT22;6723;48.256;16.402;2022-08-21T06:42:15;21.70;99.90
13310;DHT22;6723;48.256;16.402;2022-08-21T06:44:42;21.70;99.90
13310;DHT22;6723;48.256;16.402;2022-08-21T06:47:08;21.60;99.90
13310;DHT22;6723;48.256;16.402;2022-08-21T06:49:34;21.50;99.90
13310;DHT22;6723;48.256;16.402;2022-08-21T06:52:01;21.60;99.90
13310;DHT22;6723;48.256;16.402;2022-08-21T06:54:27;21.50;99.90
13310;DHT22;6723;48.256;16.402;2022-08-21T06:56:52;21.50;99.90
13310;DHT22;6723;48.256;16.402;2022-08-21T06:59:18;21.50;99.90
13310;DHT22;6723;48.256;16.402;2022-08-21T07:01:44;21.40;99.90
13310;DHT22;6723;48.256;16.402;2022-08-21T07:04:10;21.50;99.90
13310;DHT22;6723;48.256;16.402;2022-08-21T07:06:37;21.60;99.90
13310;DHT22;6723;48.256;16.402;2022-08-21T07:09:03;21.50;99.90
13310;DHT22;6723;48.256;16.402;2022-08-21T07:11:29;21.60;99.90
13310;DHT22;6723;48.256;16.402;2022-08-21T07:13:55;21.70;99.90
13310;DHT22;6723;48.256;16.402;2022-08-21T07:16:22;21.60;99.90
13310;DHT22;6723;48.256;16.402;2022-08-21T07:18:49;21.50;99.90
13310;DHT22;6723;48.256;16.402;2022-08-21T07:21:15;21.40;99.90
13310;DHT22;6723;48.256;16.402;2022-08-21T07:23:45;21.40;99.90
13310;DHT22;6723;48.256;16.402;2022-08-21T07:26:13;21.40;99.90
13310;DHT22;6723;48.256;16.402;2022-08-21T07:28:39;21.30;99.90
13310;DHT22;6723;48.256;16.402;2022-08-21T07:31:05;21.20;99.90
13310;DHT22;6723;48.256;16.402;2022-08-21T07:33:34;21.20;99.90
13310;DHT22;6723;48.256;16.402;2022-08-21T07:36:00;21.00;99.90
13310;DHT22;6723;48.256;16.402;2022-08-21T07:38:27;20.90;99.90
13310;DHT22;6723;48.256;16.402;2022-08-21T07:40:55;20.90;99.90
13310;DHT22;6723;48.256;16.402;2022-08-21T07:43:21;20.90;99.90
13310;DHT22;6723;48.256;16.402;2022-08-21T07:45:48;21.00;99.90
13310;DHT22;6723;48.256;16.402;2022-08-21T07:48:17;21.00;99.90
13310;DHT22;6723;48.256;16.402;2022-08-21T07:50:43;21.10;99.90
13310;DHT22;6723;48.256;16.402;2022-08-21T07:53:09;21.10;99.90
13310;DHT22;6723;48.256;16.402;2022-08-21T07:55:35;21.20;99.90
13310;DHT22;6723;48.256;16.402;2022-08-21T07:58:00;21.20;99.90
13310;DHT22;6723;48.256;16.402;2022-08-21T08:00:27;21.40;99.90
13310;DHT22;6723;48.256;16.402;2022-08-21T08:02:54;21.60;99.90
13310;DHT22;6723;48.256;16.402;2022-08-21T08:05:26;21.60;99.90
13310;DHT22;6723;48.256;16.402;2022-08-21T08:07:52;21.70;99.90
13310;DHT22;6723;48.256;16.402;2022-08-21T08:10:18;21.90;99.90
13310;DHT22;6723;48.256;16.402;2022-08-21T08:12:45;22.10;99.90
13310;DHT22;6723;48.256;16.402;2022-08-21T08:15:15;22.20;99.90
13310;DHT22;6723;48.256;16.402;2022-08-21T08:17:41;22.20;99.90
13310;DHT22;6723;48.256;16.402;2022-08-21T08:20:08;22.00;99.90
13310;DHT22;6723;48.256;16.402;2022-08-21T08:22:36;22.20;99.90
13310;DHT22;6723;48.256;16.402;2022-08-21T08:25:05;22.20;99.90
13310;DHT22;6723;48.256;16.402;2022-08-21T08:27:32;22.10;99.90
13310;DHT22;6723;48.256;16.402;2022-08-21T08:29:58;22.00;99.90
13310;DHT22;6723;48.256;16.402;2022-08-21T08:32:24;21.80;99.90
13310;DHT22;6723;48.256;16.402;2022-08-21T08:34:50;21.60;99.90
13310;DHT22;6723;48.256;16.402;2022-08-21T08:37:17;21.50;99.90
13310;DHT22;6723;48.256;16.402;2022-08-21T08:39:44;21.40;99.90
13310;DHT22;6723;48.256;16.402;2022-08-21T08:42:20;21.50;99.90
13310;DHT22;6723;48.256;16.402;2022-08-21T08:44:56;21.50;99.90
13310;DHT22;6723;48.256;16.402;2022-08-21T08:47:24;21.60;99.90
13310;DHT22;6723;48.256;16.402;2022-08-21T08:50:02;21.70;99.90
13310;DHT22;6723;48.256;16.402;2022-08-21T08:52:32;21.60;99.90
13310;DHT22;6723;48.256;16.402;2022-08-21T08:55:11;21.70;99.90
13310;DHT22;6723;48.256;16.402;2022-08-21T08:57:41;22.00;99.90
13310;DHT22;6723;48.256;16.402;2022-08-21T09:00:12;22.40;99.90
13310;DHT22;6723;48.256;16.402;2022-08-21T09:02:40;22.60;99.90
13310;DHT22;6723;48.256;16.402;2022-08-21T09:05:08;22.70;99.90
13310;DHT22;6723;48.256;16.402;2022-08-21T09:13:36;22.10;99.90
13310;DHT22;6723;48.256;16.402;2022-08-21T09:27:53;21.40;99.90
13310;DHT22;6723;48.256;16.402;2022-08-21T09:30:26;21.40;99.90
13310;DHT22;6723;48.256;16.402;2022-08-21T09:32:52;21.40;99.90
13310;DHT22;6723;48.256;16.402;2022-08-21T09:35:20;21.40;99.90
13310;DHT22;6723;48.256;16.402;2022-08-21T09:40:27;21.60;99.90
13310;DHT22;6723;48.256;16.402;2022-08-21T09:43:20;22.00;99.90
13310;DHT22;6723;48.256;16.402;2022-08-21T09:45:48;22.30;99.90
13310;DHT22;6723;48.256;16.402;2022-08-21T09:48:19;22.30;99.90
13310;DHT22;6723;48.256;16.402;2022-08-21T09:50:46;22.30;99.90
13310;DHT22;6723;48.256;16.402;2022-08-21T09:53:31;22.30;99.90
13310;DHT22;6723;48.256;16.402;2022-08-21T09:56:03;22.50;99.90
13310;DHT22;6723;48.256;16.402;2022-08-21T09:58:49;22.70;99.90
13310;DHT22;6723;48.256;16.402;2022-08-21T10:01:22;22.90;99.90
13310;DHT22;6723;48.256;16.402;2022-08-21T10:03:49;23.10;99.90
13310;DHT22;6723;48.256;16.402;2022-08-21T10:06:28;23.10;99.90
13310;DHT22;6723;48.256;16.402;2022-08-21T10:11:30;22.80;99.90
13310;DHT22;6723;48.256;16.402;2022-08-21T10:14:23;22.70;99.90
13310;DHT22;6723;48.256;16.402;2022-08-21T10:19:40;22.40;99.90
13310;DHT22;6723;48.256;16.402;2022-08-21T10:27:46;21.50;99.90
13310;DHT22;6723;48.256;16.402;2022-08-21T10:30:19;21.30;99.90
13310;DHT22;6723;48.256;16.402;2022-08-21T10:35:26;21.20;99.90
13310;DHT22;6723;48.256;16.402;2022-08-21T10:43:59;21.40;99.90
13310;DHT22;6723;48.256;16.402;2022-08-21T10:49:38;21.50;99.90
13310;DHT22;6723;48.256;16.402;2022-08-21T10:55:06;21.60;99.90
13310;DHT22;6723;48.256;16.402;2022-08-21T11:00:14;21.60;99.90
13310;DHT22;6723;48.256;16.402;2022-08-21T11:03:02;21.50;99.90
13310;DHT22;6723;48.256;16.402;2022-08-21T11:05:46;21.30;99.90
13310;DHT22;6723;48.256;16.402;2022-08-21T11:08:29;21.30;99.90
13310;DHT22;6723;48.256;16.402;2022-08-21T11:11:05;21.60;99.90
13310;DHT22;6723;48.256;16.402;2022-08-21T11:13:41;22.00;99.90
13310;DHT22;6723;48.256;16.402;2022-08-21T11:16:26;22.40;99.90
13310;DHT22;6723;48.256;16.402;2022-08-21T11:21:55;23.30;99.90
13310;DHT22;6723;48.256;16.402;2022-08-21T11:24:30;23.70;99.90
13310;DHT22;6723;48.256;16.402;2022-08-21T11:34:54;24.10;99.90
13310;DHT22;6723;48.256;16.402;2022-08-21T11:40:31;23.60;99.90
13310;DHT22;6723;48.256;16.402;2022-08-21T11:43:06;23.20;99.90
13310;DHT22;6723;48.256;16.402;2022-08-21T11:51:05;22.90;99.90
13310;DHT22;6723;48.256;16.402;2022-08-21T11:53:38;22.80;99.90
13310;DHT22;6723;48.256;16.402;2022-08-21T11:56:13;22.80;99.90
13310;DHT22;6723;48.256;16.402;2022-08-21T11:58:48;22.70;99.90
13310;DHT22;6723;48.256;16.402;2022-08-21T12:01:35;22.60;99.90
13310;DHT22;6723;48.256;16.402;2022-08-21T12:04:06;22.60;99.90
13310;DHT22;6723;48.256;16.402;2022-08-21T12:06:39;22.70;99.90
13310;DHT22;6723;48.256;16.402;2022-08-21T12:09:28;22.90;99.90
13310;DHT22;6723;48.256;16.402;2022-08-21T12:12:28;23.10;99.90
13310;DHT22;6723;48.256;16.402;2022-08-21T12:15:31;23.30;99.90
13310;DHT22;6723;48.256;16.402;2022-08-21T12:18:03;23.20;99.90
13310;DHT22;6723;48.256;16.402;2022-08-21T12:23:06;22.90;99.90
13310;DHT22;6723;48.256;16.402;2022-08-21T12:25:58;23.00;99.90
13310;DHT22;6723;48.256;16.402;2022-08-21T12:28:27;22.70;99.90
13310;DHT22;6723;48.256;16.402;2022-08-21T12:30:54;22.50;99.90
13310;DHT22;6723;48.256;16.402;2022-08-21T12:33:36;22.40;99.90
13310;DHT22;6723;48.256;16.402;2022-08-21T12:36:15;22.20;99.90
13310;DHT22;6723;48.256;16.402;2022-08-21T12:38:56;22.10;99.90
13310;DHT22;6723;48.256;16.402;2022-08-21T12:41:30;21.90;99.90
13310;DHT22;6723;48.256;16.402;2022-08-21T12:44:13;21.80;99.90
13310;DHT22;6723;48.256;16.402;2022-08-21T12:47:13;21.60;99.90
13310;DHT22;6723;48.256;16.402;2022-08-21T12:50:12;21.60;99.90
13310;DHT22;6723;48.256;16.402;2022-08-21T12:52:44;21.60;99.90
13310;DHT22;6723;48.256;16.402;2022-08-21T12:55:14;21.40;99.90
13310;DHT22;6723;48.256;16.402;2022-08-21T12:57:41;21.40;99.90
13310;DHT22;6723;48.256;16.402;2022-08-21T13:00:10;21.30;99.90
13310;DHT22;6723;48.256;16.402;2022-08-21T13:02:47;21.40;99.90
13310;DHT22;6723;48.256;16.402;2022-08-21T13:05:19;21.30;99.90
13310;DHT22;6723;48.256;16.402;2022-08-21T13:07:49;21.30;99.90
13310;DHT22;6723;48.256;16.402;2022-08-21T13:10:20;21.40;99.90
13310;DHT22;6723;48.256;16.402;2022-08-21T13:12:47;21.40;99.90
13310;DHT22;6723;48.256;16.402;2022-08-21T13:15:14;21.30;99.90
13310;DHT22;6723;48.256;16.402;2022-08-21T13:17:43;21.30;99.90
13310;DHT22;6723;48.256;16.402;2022-08-21T13:20:24;21.30;99.90
13310;DHT22;6723;48.256;16.402;2022-08-21T13:22:51;21.30;99.90
13310;DHT22;6723;48.256;16.402;2022-08-21T13:25:19;21.30;99.90
13310;DHT22;6723;48.256;16.402;2022-08-21T13:27:58;21.40;99.90
13310;DHT22;6723;48.256;16.402;2022-08-21T13:30:24;21.50;99.90
13310;DHT22;6723;48.256;16.402;2022-08-21T13:32:55;21.60;99.90
13310;DHT22;6723;48.256;16.402;2022-08-21T13:35:26;21.60;99.90
13310;DHT22;6723;48.256;16.402;2022-08-21T13:37:54;21.70;99.90
13310;DHT22;6723;48.256;16.402;2022-08-21T13:40:28;21.90;99.90
13310;DHT22;6723;48.256;16.402;2022-08-21T13:42:55;22.00;99.90
13310;DHT22;6723;48.256;16.402;2022-08-21T13:45:30;22.00;99.90
13310;DHT22;6723;48.256;16.402;2022-08-21T13:48:00;22.20;99.90
13310;DHT22;6723;48.256;16.402;2022-08-21T13:50:26;22.20;99.90
13310;DHT22;6723;48.256;16.402;2022-08-21T13:53:00;22.10;99.90
13310;DHT22;6723;48.256;16.402;2022-08-21T13:55:43;22.20;99.90
13310;DHT22;6723;48.256;16.402;2022-08-21T13:58:10;22.20;99.90
13310;DHT22;6723;48.256;16.402;2022-08-21T14:00:56;22.30;99.90
13310;DHT22;6723;48.256;16.402;2022-08-21T14:03:42;22.40;99.90
13310;DHT22;6723;48.256;16.402;2022-08-21T14:06:34;22.50;99.90
13310;DHT22;6723;48.256;16.402;2022-08-21T14:09:11;22.50;99.90
13310;DHT22;6723;48.256;16.402;2022-08-21T14:11:40;22.70;99.90
13310;DHT22;6723;48.256;16.402;2022-08-21T14:14:22;22.80;99.90
13310;DHT22;6723;48.256;16.402;2022-08-21T14:16:59;23.00;99.90
13310;DHT22;6723;48.256;16.402;2022-08-21T14:19:37;23.10;99.90
13310;DHT22;6723;48.256;16.402;2022-08-21T14:24:59;23.30;99.90
13310;DHT22;6723;48.256;16.402;2022-08-21T14:27:29;23.30;99.90
13310;DHT22;6723;48.256;16.402;2022-08-21T14:30:02;23.20;99.90
13310;DHT22;6723;48.256;16.402;2022-08-21T14:32:40;23.20;99.90
13310;DHT22;6723;48.256;16.402;2022-08-21T14:35:07;23.10;99.90
13310;DHT22;6723;48.256;16.402;2022-08-21T14:37:42;23.10;99.90
13310;DHT22;6723;48.256;16.402;2022-08-21T14:40:11;23.00;99.90
13310;DHT22;6723;48.256;16.402;2022-08-21T14:42:44;23.00;99.90
13310;DHT22;6723;48.256;16.402;2022-08-21T14:45:19;22.90;99.90
13310;DHT22;6723;48.256;16.402;2022-08-21T14:47:51;22.80;99.90
13310;DHT22;6723;48.256;16.402;2022-08-21T14:50:25;22.80;99.90
13310;DHT22;6723;48.256;16.402;2022-08-21T14:52:51;22.80;99.90
13310;DHT22;6723;48.256;16.402;2022-08-21T14:55:18;22.70;99.90
13310;DHT22;6723;48.256;16.402;2022-08-21T14:57:52;22.60;99.90
13310;DHT22;6723;48.256;16.402;2022-08-21T15:00:21;22.50;99.90
13310;DHT22;6723;48.256;16.402;2022-08-21T15:02:50;22.50;99.90
13310;DHT22;6723;48.256;16.402;2022-08-21T15:05:17;22.40;99.90
13310;DHT22;6723;48.256;16.402;2022-08-21T15:07:43;22.40;99.90
13310;DHT22;6723;48.256;16.402;2022-08-21T15:10:11;22.40;99.90
13310;DHT22;6723;48.256;16.402;2022-08-21T15:12:37;22.30;99.90
13310;DHT22;6723;48.256;16.402;2022-08-21T15:15:06;22.30;99.90
13310;DHT22;6723;48.256;16.402;2022-08-21T15:17:33;22.20;99.90
13310;DHT22;6723;48.256;16.402;2022-08-21T15:19:58;22.10;99.90
13310;DHT22;6723;48.256;16.402;2022-08-21T15:22:24;22.10;99.90
13310;DHT22;6723;48.256;16.402;2022-08-21T15:24:50;22.10;99.90
13310;DHT22;6723;48.256;16.402;2022-08-21T15:27:16;22.10;99.90
13310;DHT22;6723;48.256;16.402;2022-08-21T15:29:44;22.10;99.90
13310;DHT22;6723;48.256;16.402;2022-08-21T15:32:30;22.20;99.90
13310;DHT22;6723;48.256;16.402;2022-08-21T15:34:57;22.10;99.90
13310;DHT22;6723;48.256;16.402;2022-08-21T15:37:24;22.20;99.90
13310;DHT22;6723;48.256;16.402;2022-08-21T15:39:51;22.20;99.90
13310;DHT22;6723;48.256;16.402;2022-08-21T15:42:18;22.20;99.90
13310;DHT22;6723;48.256;16.402;2022-08-21T15:44:46;22.30;99.90
13310;DHT22;6723;48.256;16.402;2022-08-21T15:47:18;22.40;99.90
13310;DHT22;6723;48.256;16.402;2022-08-21T15:49:44;22.20;99.90
13310;DHT22;6723;48.256;16.402;2022-08-21T15:52:20;22.20;99.90
13310;DHT22;6723;48.256;16.402;2022-08-21T15:54:46;22.00;99.90
13310;DHT22;6723;48.256;16.402;2022-08-21T15:57:15;22.00;99.90
13310;DHT22;6723;48.256;16.402;2022-08-21T15:59:45;21.90;99.90
13310;DHT22;6723;48.256;16.402;2022-08-21T16:02:24;21.90;99.90
13310;DHT22;6723;48.256;16.402;2022-08-21T16:04:51;21.80;99.90
13310;DHT22;6723;48.256;16.402;2022-08-21T16:07:17;21.80;99.90
13310;DHT22;6723;48.256;16.402;2022-08-21T16:09:43;21.60;99.90
13310;DHT22;6723;48.256;16.402;2022-08-21T16:12:11;21.60;99.90
13310;DHT22;6723;48.256;16.402;2022-08-21T16:14:38;21.50;99.90
13310;DHT22;6723;48.256;16.402;2022-08-21T16:17:06;21.50;99.90
13310;DHT22;6723;48.256;16.402;2022-08-21T16:19:33;21.50;99.90
13310;DHT22;6723;48.256;16.402;2022-08-21T16:21:59;21.40;99.90
13310;DHT22;6723;48.256;16.402;2022-08-21T16:24:24;21.40;99.90
13310;DHT22;6723;48.256;16.402;2022-08-21T16:26:51;21.40;99.90
13310;DHT22;6723;48.256;16.402;2022-08-21T16:29:18;21.40;99.90
13310;DHT22;6723;48.256;16.402;2022-08-21T16:31:46;21.40;99.90
13310;DHT22;6723;48.256;16.402;2022-08-21T16:34:16;21.30;99.90
13310;DHT22;6723;48.256;16.402;2022-08-21T16:36:43;21.30;99.90
13310;DHT22;6723;48.256;16.402;2022-08-21T16:39:10;21.40;99.90
13310;DHT22;6723;48.256;16.402;2022-08-21T16:41:37;21.40;99.90
13310;DHT22;6723;48.256;16.402;2022-08-21T16:44:04;21.30;99.90
13310;DHT22;6723;48.256;16.402;2022-08-21T16:46:39;21.40;99.90
13310;DHT22;6723;48.256;16.402;2022-08-21T16:49:06;21.40;99.90
13310;DHT22;6723;48.256;16.402;2022-08-21T16:51:33;21.40;99.90
13310;DHT22;6723;48.256;16.402;2022-08-21T16:53:59;21.40;99.90
13310;DHT22;6723;48.256;16.402;2022-08-21T16:56:25;21.40;99.90
13310;DHT22;6723;48.256;16.402;2022-08-21T16:58:53;21.40;99.90